sensor_id;sensor_type;location;lat;lon;timestamp;pressure;altitude;pressure_sealevel;temperature;humidity
41260;BME280;26993;48.958;9.330;2022-09-17T00:01:55;98102.03;;;9.79;100.00
41260;BME280;26993;48.958;9.330;2022-09-17T00:04:41;98102.03;;;9.78;99.84
41260;BME280;26993;48.958;9.330;2022-09-17T00:07:28;98104.63;;;9.78;99.34
41260;BME280;26993;48.958;9.330;2022-09-17T00:10:15;98102.97;;;9.64;100.00
41260;BME280;26993;48.958;9.330;2022-09-17T00:13:02;98104.69;;;9.58;100.00
41260;BME280;26993;48.958;9.330;2022-09-17T00:15:50;98107.25;;;9.58;100.00
41260;BME280;26993;48.958;9.330;2022-09-17T00:18:37;98104.63;;;9.76;100.00
41260;BME280;26993;48.958;9.330;2022-09-17T00:21:26;98110.63;;;9.75;100.00
41260;BME280;26993;48.958;9.330;2022-09-17T00:24:14;98109.84;;;9.64;100.00
41260;BME280;26993;48.958;9.330;2022-09-17T00:27:01;98103.81;;;9.63;100.00
41260;BME280;26993;48.958;9.330;2022-09-17T00:29:48;98113.25;;;9.69;100.00
41260;BME280;26993;48.958;9.330;2022-09-17T00:32:36;98113.25;;;9.60;100.00
41260;BME280;26993;48.958;9.330;2022-09-17T00:35:22;98114.09;;;9.66;100.00
41260;BME280;26993;48.958;9.330;2022-09-17T00:38:10;98120.97;;;9.61;100.00
41260;BME280;26993;48.958;9.330;2022-09-17T00:40:56;98120.03;;;9.79;100.00
41260;BME280;26993;48.958;9.330;2022-09-17T00:43:46;98114.91;;;9.82;99.31
41260;BME280;26993;48.958;9.330;2022-09-17T00:46:37;98116.59;;;9.83;99.22
41260;BME280;26993;48.958;9.330;2022-09-17T00:49:29;98117.44;;;9.90;99.03
41260;BME280;26993;48.958;9.330;2022-09-17T00:52:18;98107.09;;;10.01;98.13
41260;BME280;26993;48.958;9.330;2022-09-17T00:55:11;98108.84;;;9.91;98.09
41260;BME280;26993;48.958;9.330;2022-09-17T00:58:01;98101.94;;;9.99;97.29
41260;BME280;26993;48.958;9.330;2022-09-17T01:00:48;98106.25;;;9.99;96.94
41260;BME280;26993;48.958;9.330;2022-09-17T01:03:35;98107.16;;;9.89;96.74
41260;BME280;26993;48.958;9.330;2022-09-17T01:06:31;98111.44;;;9.85;97.13
41260;BME280;26993;48.958;9.330;2022-09-17T01:09:26;98114.06;;;9.74;97.67
41260;BME280;26993;48.958;9.330;2022-09-17T01:12:33;98118.38;;;9.69;97.64
41260;BME280;26993;48.958;9.330;2022-09-17T01:15:39;98127.81;;;9.58;98.42
41260;BME280;26993;48.958;9.330;2022-09-17T01:18:36;98126.97;;;9.66;98.11
41260;BME280;26993;48.958;9.330;2022-09-17T01:21:48;98131.28;;;9.46;99.81
41260;BME280;26993;48.958;9.330;2022-09-17T01:24:59;98127.00;;;9.43;100.00
41260;BME280;26993;48.958;9.330;2022-09-17T01:28:23;98137.31;;;9.46;99.71
41260;BME280;26993;48.958;9.330;2022-09-17T01:31:28;98134.72;;;9.52;100.00
41260;BME280;26993;48.958;9.330;2022-09-17T01:34:24;98137.28;;;9.49;100.00
41260;BME280;26993;48.958;9.330;2022-09-17T01:37:16;98137.28;;;9.49;100.00
41260;BME280;26993;48.958;9.330;2022-09-17T01:40:08;98136.41;;;9.60;100.00
41260;BME280;26993;48.958;9.330;2022-09-17T01:43:02;98138.13;;;9.61;100.00
41260;BME280;26993;48.958;9.330;2022-09-17T01:45:50;98138.13;;;9.65;100.00
41260;BME280;26993;48.958;9.330;2022-09-17T01:48:42;98141.53;;;9.61;100.00
41260;BME280;26993;48.958;9.330;2022-09-17T01:51:35;98137.25;;;9.65;100.00
41260;BME280;26993;48.958;9.330;2022-09-17T01:54:26;98143.25;;;9.67;100.00
41260;BME280;26993;48.958;9.330;2022-09-17T01:57:18;98138.94;;;9.71;99.80
41260;BME280;26993;48.958;9.330;2022-09-17T02:00:10;98133.81;;;9.66;99.75
41260;BME280;26993;48.958;9.330;2022-09-17T02:03:03;98132.94;;;9.67;99.90
41260;BME280;26993;48.958;9.330;2022-09-17T02:05:58;98140.66;;;9.75;98.38
41260;BME280;26993;48.958;9.330;2022-09-17T02:08:49;98133.81;;;9.66;98.90
41260;BME280;26993;48.958;9.330;2022-09-17T02:11:39;98138.97;;;9.60;99.91
41260;BME280;26993;48.958;9.330;2022-09-17T02:14:29;98137.25;;;9.63;99.14
41260;BME280;26993;48.958;9.330;2022-09-17T02:17:22;98132.13;;;9.54;99.75
41260;BME280;26993;48.958;9.330;2022-09-17T02:20:11;98137.28;;;9.49;99.68
41260;BME280;26993;48.958;9.330;2022-09-17T02:23:06;98139.03;;;9.47;99.90
41260;BME280;26993;48.958;9.330;2022-09-17T02:25:57;98139.00;;;9.58;99.62
41260;BME280;26993;48.958;9.330;2022-09-17T02:28:48;98137.28;;;9.56;99.15
41260;BME280;26993;48.958;9.330;2022-09-17T02:31:36;98137.31;;;9.32;100.00
41260;BME280;26993;48.958;9.330;2022-09-17T02:34:26;98144.13;;;9.50;99.38
41260;BME280;26993;48.958;9.330;2022-09-17T02:37:14;98144.19;;;9.32;99.89
41260;BME280;26993;48.958;9.330;2022-09-17T02:40:03;98136.44;;;9.35;100.00
41260;BME280;26993;48.958;9.330;2022-09-17T02:42:58;98144.09;;;9.61;99.08
41260;BME280;26993;48.958;9.330;2022-09-17T02:45:57;98135.59;;;9.39;99.87
41260;BME280;26993;48.958;9.330;2022-09-17T02:49:09;98139.06;;;9.27;100.00
41260;BME280;26993;48.958;9.330;2022-09-17T02:52:06;98128.72;;;9.50;100.00
41260;BME280;26993;48.958;9.330;2022-09-17T02:55:05;98125.25;;;9.61;99.48
41260;BME280;26993;48.958;9.330;2022-09-17T02:58:02;98135.56;;;9.61;99.19
41260;BME280;26993;48.958;9.330;2022-09-17T03:00:52;98127.00;;;9.48;100.00
41260;BME280;26993;48.958;9.330;2022-09-17T03:03:43;98131.28;;;9.53;100.00
41260;BME280;26993;48.958;9.330;2022-09-17T03:06:31;98131.28;;;9.49;99.88
41260;BME280;26993;48.958;9.330;2022-09-17T03:09:17;98131.31;;;9.52;100.00
41260;BME280;26993;48.958;9.330;2022-09-17T03:12:06;98117.59;;;9.39;100.00
41260;BME280;26993;48.958;9.330;2022-09-17T03:14:53;98119.28;;;9.49;100.00
41260;BME280;26993;48.958;9.330;2022-09-17T03:17:39;98128.72;;;9.44;100.00
41260;BME280;26993;48.958;9.330;2022-09-17T03:20:26;98135.59;;;9.45;99.64
41260;BME280;26993;48.958;9.330;2022-09-17T03:23:13;98136.41;;;9.55;99.44
41260;BME280;26993;48.958;9.330;2022-09-17T03:25:59;98129.59;;;9.46;99.40
41260;BME280;26993;48.958;9.330;2022-09-17T03:28:47;98126.16;;;9.46;99.59
41260;BME280;26993;48.958;9.330;2022-09-17T03:31:34;98125.28;;;9.50;99.51
41260;BME280;26993;48.958;9.330;2022-09-17T03:34:21;98135.59;;;9.39;99.79
41260;BME280;26993;48.958;9.330;2022-09-17T03:37:08;98136.44;;;9.40;99.62
41260;BME280;26993;48.958;9.330;2022-09-17T03:39:54;98135.56;;;9.47;98.74
41260;BME280;26993;48.958;9.330;2022-09-17T03:42:41;98135.56;;;9.55;98.08
41260;BME280;26993;48.958;9.330;2022-09-17T03:45:29;98128.72;;;9.46;98.66
41260;BME280;26993;48.958;9.330;2022-09-17T03:48:16;98138.16;;;9.45;98.37
41260;BME280;26993;48.958;9.330;2022-09-17T03:51:03;98139.00;;;9.55;98.22
41260;BME280;26993;48.958;9.330;2022-09-17T03:53:49;98150.16;;;9.46;98.15
41260;BME280;26993;48.958;9.330;2022-09-17T03:56:36;98147.59;;;9.42;98.66
41260;BME280;26993;48.958;9.330;2022-09-17T03:59:23;98154.44;;;9.46;99.08
41260;BME280;26993;48.958;9.330;2022-09-17T04:02:11;98157.88;;;9.46;99.01
41260;BME280;26993;48.958;9.330;2022-09-17T04:04:57;98157.03;;;9.43;99.67
41260;BME280;26993;48.958;9.330;2022-09-17T04:07:44;98162.16;;;9.47;98.55
41260;BME280;26993;48.958;9.330;2022-09-17T04:10:30;98165.59;;;9.42;99.49
41260;BME280;26993;48.958;9.330;2022-09-17T04:13:18;98156.13;;;9.58;98.45
41260;BME280;26993;48.958;9.330;2022-09-17T04:16:05;98157.00;;;9.53;98.35
41260;BME280;26993;48.958;9.330;2022-09-17T04:18:53;98153.53;;;9.62;97.48
41260;BME280;26993;48.958;9.330;2022-09-17T04:21:39;98154.44;;;9.35;98.56
41260;BME280;26993;48.958;9.330;2022-09-17T04:24:26;98155.31;;;9.40;98.84
41260;BME280;26993;48.958;9.330;2022-09-17T04:27:13;98159.59;;;9.40;98.43
41260;BME280;26993;48.958;9.330;2022-09-17T04:29:59;98157.03;;;9.43;98.89
41260;BME280;26993;48.958;9.330;2022-09-17T04:32:46;98156.16;;;9.45;98.88
41260;BME280;26993;48.958;9.330;2022-09-17T04:35:35;98151.91;;;9.41;98.39
41260;BME280;26993;48.958;9.330;2022-09-17T04:38:21;98155.31;;;9.40;98.65
41260;BME280;26993;48.958;9.330;2022-09-17T04:41:08;98164.75;;;9.24;98.64
41260;BME280;26993;48.958;9.330;2022-09-17T04:43:54;98161.31;;;9.31;98.66
41260;BME280;26993;48.958;9.330;2022-09-17T04:46:41;98165.59;;;9.32;98.98
41260;BME280;26993;48.958;9.330;2022-09-17T04:49:28;98174.19;;;9.24;98.61
41260;BME280;26993;48.958;9.330;2022-09-17T04:52:16;98167.31;;;9.29;99.49
41260;BME280;26993;48.958;9.330;2022-09-17T04:55:04;98168.19;;;9.34;99.06
41260;BME280;26993;48.958;9.330;2022-09-17T04:57:52;98165.63;;;9.18;99.25
41260;BME280;26993;48.958;9.330;2022-09-17T05:00:38;98177.63;;;9.21;99.15
41260;BME280;26993;48.958;9.330;2022-09-17T05:03:26;98178.47;;;9.17;98.84
41260;BME280;26993;48.958;9.330;2022-09-17T05:06:12;98189.63;;;9.11;99.71
41260;BME280;26993;48.958;9.330;2022-09-17T05:09:00;98193.88;;;9.12;99.02
41260;BME280;26993;48.958;9.330;2022-09-17T05:11:47;98199.88;;;9.14;99.12
41260;BME280;26993;48.958;9.330;2022-09-17T05:14:34;98198.16;;;9.07;99.58
41260;BME280;26993;48.958;9.330;2022-09-17T05:17:20;98197.31;;;8.97;99.68
41260;BME280;26993;48.958;9.330;2022-09-17T05:20:08;98189.59;;;9.10;99.47
41260;BME280;26993;48.958;9.330;2022-09-17T05:22:55;98194.75;;;9.07;99.86
41260;BME280;26993;48.958;9.330;2022-09-17T05:25:43;98207.59;;;9.07;99.63
41260;BME280;26993;48.958;9.330;2022-09-17T05:28:30;98201.59;;;9.00;100.00
41260;BME280;26993;48.958;9.330;2022-09-17T05:31:16;98205.88;;;9.07;100.00
41260;BME280;26993;48.958;9.330;2022-09-17T05:34:03;98205.88;;;8.98;100.00
41260;BME280;26993;48.958;9.330;2022-09-17T05:36:50;98205.00;;;9.05;100.00
41260;BME280;26993;48.958;9.330;2022-09-17T05:39:37;98198.16;;;9.23;100.00
41260;BME280;26993;48.958;9.330;2022-09-17T05:42:25;98203.31;;;9.21;100.00
41260;BME280;26993;48.958;9.330;2022-09-17T05:45:12;98199.03;;;9.34;99.56
41260;BME280;26993;48.958;9.330;2022-09-17T05:48:00;98207.59;;;9.34;98.79
41260;BME280;26993;48.958;9.330;2022-09-17T05:50:47;98215.31;;;9.30;99.02
41260;BME280;26993;48.958;9.330;2022-09-17T05:53:34;98222.16;;;9.31;98.78
41260;BME280;26993;48.958;9.330;2022-09-17T05:56:20;98222.19;;;9.18;98.91
41260;BME280;26993;48.958;9.330;2022-09-17T05:59:09;98222.16;;;9.03;99.34
41260;BME280;26993;48.958;9.330;2022-09-17T06:01:56;98222.16;;;9.06;99.92
41260;BME280;26993;48.958;9.330;2022-09-17T06:04:43;98220.47;;;9.17;99.64
41260;BME280;26993;48.958;9.330;2022-09-17T06:07:30;98223.88;;;9.24;99.18
41260;BME280;26993;48.958;9.330;2022-09-17T06:10:17;98217.88;;;9.25;98.54
41260;BME280;26993;48.958;9.330;2022-09-17T06:13:03;98225.59;;;9.22;98.02
41260;BME280;26993;48.958;9.330;2022-09-17T06:15:52;98239.31;;;9.23;98.44
41260;BME280;26993;48.958;9.330;2022-09-17T06:18:39;98235.88;;;9.22;98.38
41260;BME280;26993;48.958;9.330;2022-09-17T06:21:26;98238.44;;;9.11;99.11
41260;BME280;26993;48.958;9.330;2022-09-17T06:24:12;98241.00;;;9.14;98.94
41260;BME280;26993;48.958;9.330;2022-09-17T06:26:59;98249.59;;;9.15;98.72
41260;BME280;26993;48.958;9.330;2022-09-17T06:29:45;98248.72;;;9.17;98.95
41260;BME280;26993;48.958;9.330;2022-09-17T06:32:33;98242.72;;;9.35;98.30
41260;BME280;26993;48.958;9.330;2022-09-17T06:35:20;98246.16;;;9.33;97.52
41260;BME280;26993;48.958;9.330;2022-09-17T06:38:07;98246.16;;;9.33;97.79
41260;BME280;26993;48.958;9.330;2022-09-17T06:40:54;98250.44;;;9.43;97.76
41260;BME280;26993;48.958;9.330;2022-09-17T06:43:42;98254.75;;;9.41;97.14
41260;BME280;26993;48.958;9.330;2022-09-17T06:46:29;98250.44;;;9.39;96.74
41260;BME280;26993;48.958;9.330;2022-09-17T06:49:17;98247.00;;;9.38;96.79
41260;BME280;26993;48.958;9.330;2022-09-17T06:52:04;98253.00;;;9.37;96.77
41260;BME280;26993;48.958;9.330;2022-09-17T06:54:51;98253.84;;;9.42;96.68
41260;BME280;26993;48.958;9.330;2022-09-17T06:57:37;98261.56;;;9.42;96.10
41260;BME280;26993;48.958;9.330;2022-09-17T07:00:24;98257.31;;;9.47;95.64
41260;BME280;26993;48.958;9.330;2022-09-17T07:03:11;98262.44;;;9.44;96.71
41260;BME280;26993;48.958;9.330;2022-09-17T07:05:59;98265.88;;;9.46;97.44
41260;BME280;26993;48.958;9.330;2022-09-17T07:08:46;98264.16;;;9.34;98.24
41260;BME280;26993;48.958;9.330;2022-09-17T07:11:32;98264.16;;;9.33;98.70
41260;BME280;26993;48.958;9.330;2022-09-17T07:14:19;98273.56;;;9.21;99.79
41260;BME280;26993;48.958;9.330;2022-09-17T07:17:06;98269.28;;;9.30;99.96
41260;BME280;26993;48.958;9.330;2022-09-17T07:19:52;98276.13;;;9.28;100.00
41260;BME280;26993;48.958;9.330;2022-09-17T07:22:40;98276.16;;;9.31;99.86
41260;BME280;26993;48.958;9.330;2022-09-17T07:25:27;98276.16;;;9.29;100.00
41260;BME280;26993;48.958;9.330;2022-09-17T07:28:14;98274.41;;;9.25;100.00
41260;BME280;26993;48.958;9.330;2022-09-17T07:31:02;98274.41;;;9.25;100.00
41260;BME280;26993;48.958;9.330;2022-09-17T07:33:50;98286.44;;;9.25;100.00
41260;BME280;26993;48.958;9.330;2022-09-17T07:36:37;98286.41;;;9.21;100.00
41260;BME280;26993;48.958;9.330;2022-09-17T07:39:25;98286.41;;;9.21;100.00
41260;BME280;26993;48.958;9.330;2022-09-17T07:42:11;98288.13;;;9.18;100.00
41260;BME280;26993;48.958;9.330;2022-09-17T07:44:58;98293.28;;;9.23;100.00
41260;BME280;26993;48.958;9.330;2022-09-17T07:47:45;98303.56;;;9.16;100.00
41260;BME280;26993;48.958;9.330;2022-09-17T07:50:31;98298.41;;;9.24;100.00
41260;BME280;26993;48.958;9.330;2022-09-17T07:53:18;98301.00;;;9.32;100.00
41260;BME280;26993;48.958;9.330;2022-09-17T07:56:07;98307.00;;;9.25;100.00
41260;BME280;26993;48.958;9.330;2022-09-17T07:58:54;98295.00;;;9.27;100.00
41260;BME280;26993;48.958;9.330;2022-09-17T08:01:41;98306.13;;;9.23;100.00
41260;BME280;26993;48.958;9.330;2022-09-17T08:04:27;98306.13;;;9.29;100.00
41260;BME280;26993;48.958;9.330;2022-09-17T08:07:14;98318.13;;;9.30;100.00
41260;BME280;26993;48.958;9.330;2022-09-17T08:10:00;98320.69;;;9.25;100.00
41260;BME280;26993;48.958;9.330;2022-09-17T08:12:54;98310.41;;;9.31;100.00
41260;BME280;26993;48.958;9.330;2022-09-17T08:15:41;98319.00;;;9.50;100.00
41260;BME280;26993;48.958;9.330;2022-09-17T08:18:28;98323.28;;;9.45;100.00
41260;BME280;26993;48.958;9.330;2022-09-17T08:21:16;98321.56;;;9.50;100.00
41260;BME280;26993;48.958;9.330;2022-09-17T08:24:03;98317.31;;;9.56;100.00
41260;BME280;26993;48.958;9.330;2022-09-17T08:26:50;98322.44;;;9.52;100.00
41260;BME280;26993;48.958;9.330;2022-09-17T08:29:38;98317.31;;;9.45;100.00
41260;BME280;26993;48.958;9.330;2022-09-17T08:32:25;98308.72;;;9.50;100.00
41260;BME280;26993;48.958;9.330;2022-09-17T08:35:14;98311.28;;;9.49;100.00
41260;BME280;26993;48.958;9.330;2022-09-17T08:38:02;98314.72;;;9.76;100.00
41260;BME280;26993;48.958;9.330;2022-09-17T08:40:57;98316.44;;;9.86;100.00
41260;BME280;26993;48.958;9.330;2022-09-17T08:43:51;98318.13;;;10.04;100.00
41260;BME280;26993;48.958;9.330;2022-09-17T08:46:46;98321.56;;;10.11;100.00
41260;BME280;26993;48.958;9.330;2022-09-17T08:49:35;98315.50;;;10.20;100.00
41260;BME280;26993;48.958;9.330;2022-09-17T08:52:44;98313.81;;;10.17;97.80
41260;BME280;26993;48.958;9.330;2022-09-17T08:55:39;98320.69;;;10.13;97.29
41260;BME280;26993;48.958;9.330;2022-09-17T08:58:39;98323.25;;;10.20;98.27
41260;BME280;26993;48.958;9.330;2022-09-17T09:01:32;98318.94;;;10.32;97.07
41260;BME280;26993;48.958;9.330;2022-09-17T09:04:43;98325.75;;;10.54;97.65
41260;BME280;26993;48.958;9.330;2022-09-17T09:07:37;98321.41;;;10.70;95.36
41260;BME280;26993;48.958;9.330;2022-09-17T09:10:28;98322.22;;;10.75;95.67
41260;BME280;26993;48.958;9.330;2022-09-17T09:13:18;98330.78;;;10.80;94.79
41260;BME280;26993;48.958;9.330;2022-09-17T09:16:12;98324.75;;;10.87;93.42
41260;BME280;26993;48.958;9.330;2022-09-17T09:19:09;98323.88;;;10.88;93.54
41260;BME280;26993;48.958;9.330;2022-09-17T09:22:04;98320.41;;;10.97;93.28
41260;BME280;26993;48.958;9.330;2022-09-17T09:25:02;98315.25;;;10.97;92.12
41260;BME280;26993;48.958;9.330;2022-09-17T09:28:06;98324.75;;;10.89;92.18
41260;BME280;26993;48.958;9.330;2022-09-17T09:31:04;98319.63;;;10.76;93.15
41260;BME280;26993;48.958;9.330;2022-09-17T09:33:56;98317.84;;;10.94;92.87
41260;BME280;26993;48.958;9.330;2022-09-17T09:36:43;98311.75;;;11.06;91.89
41260;BME280;26993;48.958;9.330;2022-09-17T09:39:33;98315.94;;;11.24;92.24
41260;BME280;26993;48.958;9.330;2022-09-17T09:42:27;98310.78;;;11.25;90.04
41260;BME280;26993;48.958;9.330;2022-09-17T09:45:17;98313.44;;;11.16;88.46
41260;BME280;26993;48.958;9.330;2022-09-17T09:48:14;98306.59;;;11.07;87.29
41260;BME280;26993;48.958;9.330;2022-09-17T09:51:16;98310.16;;;10.80;86.98
41260;BME280;26993;48.958;9.330;2022-09-17T09:54:15;98316.22;;;10.76;88.61
41260;BME280;26993;48.958;9.330;2022-09-17T09:57:10;98318.75;;;10.85;89.69
41260;BME280;26993;48.958;9.330;2022-09-17T10:00:25;98314.44;;;10.86;90.29
41260;BME280;26993;48.958;9.330;2022-09-17T10:03:17;98315.25;;;10.95;88.57
41260;BME280;26993;48.958;9.330;2022-09-17T10:06:09;98314.31;;;11.15;88.18
41260;BME280;26993;48.958;9.330;2022-09-17T10:09:10;98311.63;;;11.27;88.09
41260;BME280;26993;48.958;9.330;2022-09-17T10:12:00;98314.94;;;11.47;87.98
41260;BME280;26993;48.958;9.330;2022-09-17T10:14:48;98308.78;;;11.65;86.70
41260;BME280;26993;48.958;9.330;2022-09-17T10:17:35;98303.53;;;11.74;85.20
41260;BME280;26993;48.958;9.330;2022-09-17T10:20:22;98299.31;;;11.65;84.07
41260;BME280;26993;48.958;9.330;2022-09-17T10:23:10;98301.09;;;11.55;83.70
41260;BME280;26993;48.958;9.330;2022-09-17T10:25:58;98295.88;;;11.63;83.35
41260;BME280;26993;48.958;9.330;2022-09-17T10:28:48;98288.97;;;11.68;82.82
41260;BME280;26993;48.958;9.330;2022-09-17T10:31:47;98288.22;;;11.57;83.62
41260;BME280;26993;48.958;9.330;2022-09-17T10:34:34;98289.88;;;11.58;84.37
41260;BME280;26993;48.958;9.330;2022-09-17T10:37:32;98294.22;;;11.57;85.04
41260;BME280;26993;48.958;9.330;2022-09-17T10:40:26;98291.53;;;11.68;85.96
41260;BME280;26993;48.958;9.330;2022-09-17T10:43:19;98288.78;;;11.88;84.10
41260;BME280;26993;48.958;9.330;2022-09-17T10:46:09;98284.34;;;12.06;83.51
41260;BME280;26993;48.958;9.330;2022-09-17T10:49:08;98282.44;;;12.22;82.46
41260;BME280;26993;48.958;9.330;2022-09-17T10:52:04;98277.81;;;12.50;80.84
41260;BME280;26993;48.958;9.330;2022-09-17T10:55:11;98277.59;;;12.67;80.28
41260;BME280;26993;48.958;9.330;2022-09-17T10:58:07;98270.59;;;12.76;80.10
41260;BME280;26993;48.958;9.330;2022-09-17T11:01:07;98275.44;;;12.99;80.01
41260;BME280;26993;48.958;9.330;2022-09-17T11:04:20;98266.69;;;13.08;76.17
41260;BME280;26993;48.958;9.330;2022-09-17T11:07:31;98263.44;;;12.96;75.50
41260;BME280;26993;48.958;9.330;2022-09-17T11:10:26;98256.00;;;12.73;76.45
41260;BME280;26993;48.958;9.330;2022-09-17T11:13:22;98271.41;;;12.78;79.02
41260;BME280;26993;48.958;9.330;2022-09-17T11:16:26;98276.06;;;12.54;78.27
41260;BME280;26993;48.958;9.330;2022-09-17T11:19:23;98278.50;;;12.65;78.90
41260;BME280;26993;48.958;9.330;2022-09-17T11:22:20;98279.34;;;12.65;77.49
41260;BME280;26993;48.958;9.330;2022-09-17T11:25:20;98283.28;;;12.24;80.60
41260;BME280;26993;48.958;9.330;2022-09-17T11:28:21;98270.75;;;11.87;80.89
41260;BME280;26993;48.958;9.330;2022-09-17T11:31:22;98283.81;;;11.67;85.28
41260;BME280;26993;48.958;9.330;2022-09-17T11:34:24;98271.84;;;11.59;88.22
41260;BME280;26993;48.958;9.330;2022-09-17T11:37:16;98273.63;;;11.48;86.91
41260;BME280;26993;48.958;9.330;2022-09-17T11:40:12;98271.84;;;11.59;85.17
41260;BME280;26993;48.958;9.330;2022-09-17T11:43:03;98265.84;;;11.57;85.14
41260;BME280;26993;48.958;9.330;2022-09-17T11:45:58;98271.69;;;11.77;89.11
41260;BME280;26993;48.958;9.330;2022-09-17T11:48:49;98276.56;;;12.09;86.44
41260;BME280;26993;48.958;9.330;2022-09-17T11:51:42;98260.72;;;12.40;87.63
41260;BME280;26993;48.958;9.330;2022-09-17T11:54:34;98262.16;;;12.63;87.01
41260;BME280;26993;48.958;9.330;2022-09-17T11:57:26;98269.06;;;12.61;82.04
41260;BME280;26993;48.958;9.330;2022-09-17T12:00:18;98259.41;;;12.77;81.56
41260;BME280;26993;48.958;9.330;2022-09-17T12:03:15;98248.88;;;12.89;80.73
41260;BME280;26993;48.958;9.330;2022-09-17T12:06:07;98249.66;;;12.94;80.49
41260;BME280;26993;48.958;9.330;2022-09-17T12:09:00;98242.59;;;13.06;80.71
41260;BME280;26993;48.958;9.330;2022-09-17T12:11:52;98240.75;;;13.12;79.35
41260;BME280;26993;48.958;9.330;2022-09-17T12:14:45;98238.59;;;13.44;81.29
41260;BME280;26993;48.958;9.330;2022-09-17T12:17:37;98223.44;;;13.71;78.98
41260;BME280;26993;48.958;9.330;2022-09-17T12:20:29;98217.97;;;13.88;76.74
41260;BME280;26993;48.958;9.330;2022-09-17T12:23:21;98210.75;;;14.04;74.82
41260;BME280;26993;48.958;9.330;2022-09-17T12:26:25;98198.41;;;14.18;73.38
41260;BME280;26993;48.958;9.330;2022-09-17T12:29:26;98194.00;;;14.63;74.14
41260;BME280;26993;48.958;9.330;2022-09-17T12:32:36;98209.72;;;14.55;73.63
41260;BME280;26993;48.958;9.330;2022-09-17T12:39:22;98208.31;;;13.96;73.54
41260;BME280;26993;48.958;9.330;2022-09-17T12:42:28;98210.22;;;13.86;74.77
41260;BME280;26993;48.958;9.330;2022-09-17T12:45:37;98221.06;;;14.07;75.56
41260;BME280;26993;48.958;9.330;2022-09-17T12:48:40;98227.19;;;14.03;74.55
41260;BME280;26993;48.958;9.330;2022-09-17T12:55:03;98225.28;;;14.12;74.79
41260;BME280;26993;48.958;9.330;2022-09-17T12:58:01;98228.88;;;14.04;74.27
41260;BME280;26993;48.958;9.330;2022-09-17T13:00:58;98234.25;;;13.93;74.57
41260;BME280;26993;48.958;9.330;2022-09-17T13:03:51;98235.22;;;13.89;73.49
41260;BME280;26993;48.958;9.330;2022-09-17T13:07:09;98229.78;;;14.03;72.41
41260;BME280;26993;48.958;9.330;2022-09-17T13:10:18;98235.13;;;13.93;72.56
41260;BME280;26993;48.958;9.330;2022-09-17T13:13:26;98244.59;;;13.94;74.22
41260;BME280;26993;48.958;9.330;2022-09-17T13:16:17;98259.00;;;13.59;75.58
41260;BME280;26993;48.958;9.330;2022-09-17T13:19:12;98255.00;;;13.41;76.51
41260;BME280;26993;48.958;9.330;2022-09-17T13:22:05;98255.97;;;13.32;78.02
41260;BME280;26993;48.958;9.330;2022-09-17T13:25:03;98258.78;;;13.20;78.14
41260;BME280;26993;48.958;9.330;2022-09-17T13:28:03;98251.75;;;13.27;78.12
41260;BME280;26993;48.958;9.330;2022-09-17T13:30:57;98252.44;;;13.37;78.39
41260;BME280;26993;48.958;9.330;2022-09-17T13:33:51;98247.16;;;13.46;78.08
41260;BME280;26993;48.958;9.330;2022-09-17T13:36:42;98240.88;;;13.61;78.23
41260;BME280;26993;48.958;9.330;2022-09-17T13:39:42;98235.63;;;13.66;75.77
41260;BME280;26993;48.958;9.330;2022-09-17T13:42:31;98236.03;;;13.41;74.19
41260;BME280;26993;48.958;9.330;2022-09-17T13:45:28;98243.66;;;13.50;74.96
41260;BME280;26993;48.958;9.330;2022-09-17T13:48:20;98237.50;;;13.56;74.00
41260;BME280;26993;48.958;9.330;2022-09-17T13:54:36;98231.97;;;13.77;73.71
41260;BME280;26993;48.958;9.330;2022-09-17T13:57:25;98234.91;;;14.04;72.96
41260;BME280;26993;48.958;9.330;2022-09-17T14:03:53;98240.38;;;13.89;74.28
41260;BME280;26993;48.958;9.330;2022-09-17T14:06:59;98247.78;;;13.60;70.39
41260;BME280;26993;48.958;9.330;2022-09-17T14:09:53;98248.63;;;13.62;70.67
41260;BME280;26993;48.958;9.330;2022-09-17T14:12:59;98232.28;;;13.59;70.75
41260;BME280;26993;48.958;9.330;2022-09-17T14:15:56;98245.81;;;13.75;73.07
41260;BME280;26993;48.958;9.330;2022-09-17T14:18:57;98242.28;;;13.79;74.15
41260;BME280;26993;48.958;9.330;2022-09-17T14:21:55;98238.91;;;13.74;73.56
41260;BME280;26993;48.958;9.330;2022-09-17T14:24:46;98242.25;;;13.80;74.59
41260;BME280;26993;48.958;9.330;2022-09-17T14:27:46;98243.03;;;13.86;74.24
41260;BME280;26993;48.958;9.330;2022-09-17T14:30:36;98236.16;;;13.85;74.41
41260;BME280;26993;48.958;9.330;2022-09-17T14:33:26;98238.63;;;13.89;74.22
41260;BME280;26993;48.958;9.330;2022-09-17T14:36:19;98235.03;;;13.98;74.51
41260;BME280;26993;48.958;9.330;2022-09-17T14:39:12;98235.97;;;13.95;74.11
41260;BME280;26993;48.958;9.330;2022-09-17T14:42:04;98217.63;;;14.05;74.45
41260;BME280;26993;48.958;9.330;2022-09-17T14:44:56;98216.41;;;14.23;74.15
41260;BME280;26993;48.958;9.330;2022-09-17T14:47:44;98220.63;;;14.28;70.72
41260;BME280;26993;48.958;9.330;2022-09-17T14:50:31;98216.53;;;14.17;72.23
41260;BME280;26993;48.958;9.330;2022-09-17T14:53:19;98217.09;;;14.31;72.11
41260;BME280;26993;48.958;9.330;2022-09-17T14:56:08;98209.47;;;14.25;71.57
41260;BME280;26993;48.958;9.330;2022-09-17T14:58:56;98216.78;;;14.04;72.77
41260;BME280;26993;48.958;9.330;2022-09-17T15:01:45;98219.09;;;14.20;72.65
41260;BME280;26993;48.958;9.330;2022-09-17T15:04:33;98217.19;;;14.28;71.99
41260;BME280;26993;48.958;9.330;2022-09-17T15:07:20;98208.19;;;14.44;73.00
41260;BME280;26993;48.958;9.330;2022-09-17T15:10:12;98218.81;;;14.32;72.89
41260;BME280;26993;48.958;9.330;2022-09-17T15:13:00;98216.03;;;14.41;72.38
41260;BME280;26993;48.958;9.330;2022-09-17T15:15:57;98206.31;;;14.51;72.57
41260;BME280;26993;48.958;9.330;2022-09-17T15:18:47;98207.28;;;14.47;74.01
41260;BME280;26993;48.958;9.330;2022-09-17T15:21:38;98216.78;;;14.47;72.54
41260;BME280;26993;48.958;9.330;2022-09-17T15:24:33;98208.19;;;14.44;72.57
41260;BME280;26993;48.958;9.330;2022-09-17T15:27:27;98217.53;;;14.53;71.37
41260;BME280;26993;48.958;9.330;2022-09-17T15:30:16;98208.78;;;14.57;71.89